Stephen M. White — WCU6542 — position and weather

sailwx.info

Track history (hours):
 
Tides and Currents Weather Stations Pressure Air Temp Water Temp Dewpoint Dewpoint Depression Visibility Wind Speed Wind Dir Waves Ship Positions

Stephen M. White

Owner: LOS ANGELES, CITY OF, SAN PEDRO, CA. More information available from US FCC via Universal Licensing System and Coast Guard Vessel Documentation Center.

Last reported at 2016-Aug-25 02:33 UTC. Time now 2016-Aug-25 02:46 UTC.
Position N 33°43' W 118°16'.

Length 13 m.

Type: Other ship. MMSI: 367049470.

Date/timePositionNaut miles runAvg speedWind from/ knotsBaromVisibWave heightAir tempDewpointWater temp
2016-Aug-25 02:33N 33°43' W 118°16'0 0.0
2016-Aug-25 01:33N 33°43' W 118°16'0 0.0
2016-Aug-25 00:33N 33°43' W 118°16'2 1.5
2016-Aug-24 23:33N 33°42' W 118°15'2 1.5
2016-Aug-24 22:33N 33°43' W 118°16'3 3.4
2016-Aug-24 21:33N 33°41' W 118°14'3 2.5
2016-Aug-24 20:14N 33°43' W 118°16'0 0.0
2016-Aug-24 19:22N 33°43' W 118°16'0 0.0
2016-Aug-24 15:32N 33°43' W 118°16'0 0.0
2016-Aug-24 14:23N 33°43' W 118°16'1 0.7
2016-Aug-24 13:33N 33°43' W 118°16'1 0.9
2016-Aug-24 12:33N 33°42' W 118°15'2 1.5
2016-Aug-24 11:33N 33°43' W 118°16'1 1.3
2016-Aug-24 10:33N 33°43' W 118°15'1 1.3
2016-Aug-24 09:33N 33°43' W 118°16'0 0.0
2016-Aug-24 08:31N 33°43' W 118°16'0 0.0
2016-Aug-24 07:34N 33°43' W 118°16'0 0.0
2016-Aug-24 06:33N 33°43' W 118°16'0 0.0
2016-Aug-24 04:33N 33°43' W 118°16'0 0.0
2016-Aug-24 03:32N 33°43' W 118°16'0 0.0
2016-Aug-24 02:33N 33°43' W 118°16'0 0.0
2016-Aug-24 01:34N 33°43' W 118°16'0 0.0
2016-Aug-24 00:33N 33°43' W 118°16'0 0.0
2016-Aug-23 23:32N 33°43' W 118°16'0 0.0
2016-Aug-23 22:33N 33°43' W 118°16'0 0.0
2016-Aug-23 21:33N 33°43' W 118°16'0 0.0
2016-Aug-23 20:33N 33°43' W 118°16'3 2.5
2016-Aug-23 19:31N 33°41' W 118°15'3 2.6
2016-Aug-23 18:32N 33°43' W 118°16'0 0.0
2016-Aug-23 17:33N 33°43' W 118°16'0 0.0
2016-Aug-23 16:33N 33°43' W 118°16'0 0.0
2016-Aug-23 15:33N 33°43' W 118°16'0 0.0
2016-Aug-23 14:30N 33°43' W 118°16'0 0.0
2016-Aug-23 12:30N 33°43' W 118°16'0 0.0
2016-Aug-23 11:24N 33°43' W 118°16'0 0.0
2016-Aug-23 10:33N 33°43' W 118°16'0 0.0
2016-Aug-23 09:33N 33°43' W 118°16'0 0.0
2016-Aug-23 08:33N 33°43' W 118°16'0 0.0
2016-Aug-23 07:33N 33°43' W 118°16'0 0.0
2016-Aug-23 05:33N 33°43' W 118°16'0 0.0
2016-Aug-23 04:33N 33°43' W 118°16'0 0.0
2016-Aug-23 03:33N 33°43' W 118°16'1 0.9
2016-Aug-23 02:34N 33°43' W 118°15'1 0.9
2016-Aug-23 01:33N 33°43' W 118°16'3 2.9
2016-Aug-23 00:33N 33°41' W 118°14'3 2.9
2016-Aug-22 23:34N 33°43' W 118°16'2 2.1
2016-Aug-22 22:33N 33°42' W 118°14'2 2.1
2016-Aug-22 21:32N 33°43' W 118°16'0 0.0
2016-Aug-22 20:33N 33°43' W 118°16'0 0.0
2016-Aug-22 19:27N 33°43' W 118°16'0 0.0
2016-Aug-22 17:15N 33°43' W 118°16'0 0.0
2016-Aug-22 16:33N 33°43' W 118°16'0 0.0
2016-Aug-22 15:33N 33°43' W 118°16'0 0.0
2016-Aug-22 14:33N 33°43' W 118°16'0 0.5
2016-Aug-22 13:33N 33°44' W 118°16'0 0.1
2016-Aug-22 12:33N 33°44' W 118°17'0 0.0
2016-Aug-22 11:22N 33°44' W 118°17'0 0.0
2016-Aug-22 10:32N 33°44' W 118°17'0 0.0
2016-Aug-22 09:33N 33°44' W 118°17'0 0.0
2016-Aug-22 08:33N 33°44' W 118°17'0 0.0
2016-Aug-22 07:33N 33°44' W 118°17'0 0.0
2016-Aug-22 06:33N 33°44' W 118°17'0 0.0
2016-Aug-22 05:33N 33°44' W 118°17'0 0.0
2016-Aug-22 04:32N 33°44' W 118°17'0 0.0
2016-Aug-22 03:33N 33°44' W 118°17'0 0.0
2016-Aug-22 02:32N 33°44' W 118°17'0 0.0
2016-Aug-22 01:33N 33°44' W 118°17'0 0.0
2016-Aug-22 00:33N 33°44' W 118°17'0 0.3
2016-Aug-21 23:33N 33°44' W 118°16'1 1.1
2016-Aug-21 22:34N 33°43' W 118°15'1 0.9
2016-Aug-21 21:33N 33°43' W 118°16'0 0.0
2016-Aug-21 20:33N 33°43' W 118°16'0 0.0
2016-Aug-21 19:33N 33°43' W 118°16'2 2.4
2016-Aug-21 18:32N 33°46' W 118°16'0 0.1
2016-Aug-21 17:33N 33°46' W 118°16'0 0.0
2016-Aug-21 16:33N 33°46' W 118°16'0 0.0
2016-Aug-21 15:33N 33°46' W 118°16'0 0.0
2016-Aug-21 14:31N 33°46' W 118°16'0 0.0
2016-Aug-21 12:31N 33°46' W 118°16'0 0.0
2016-Aug-21 11:31N 33°46' W 118°16'0 0.0
2016-Aug-21 10:33N 33°46' W 118°16'0 0.0
2016-Aug-21 09:34N 33°46' W 118°16'0 0.0
2016-Aug-21 08:32N 33°46' W 118°16'0 0.0
2016-Aug-21 07:33N 33°46' W 118°16'0 0.0
2016-Aug-21 06:32N 33°46' W 118°16'0 0.0
2016-Aug-21 05:33N 33°46' W 118°16'0 0.0
2016-Aug-21 04:33N 33°46' W 118°16'0 0.0
2016-Aug-21 03:33N 33°46' W 118°16'0 0.0
2016-Aug-21 02:23N 33°46' W 118°16'0 0.0
2016-Aug-21 00:33N 33°46' W 118°16'0 0.0
2016-Aug-20 23:32N 33°46' W 118°16'0 0.0
2016-Aug-20 22:22N 33°46' W 118°16'0 0.0
2016-Aug-20 20:26N 33°46' W 118°16'0 0.0
2016-Aug-20 19:33N 33°46' W 118°16'0 0.0
2016-Aug-20 17:16N 33°46' W 118°16'0 0.0
2016-Aug-20 16:17N 33°46' W 118°16'0 0.0
2016-Aug-20 15:33N 33°46' W 118°16'0 0.0
2016-Aug-20 14:33N 33°46' W 118°16'0 0.0
2016-Aug-20 13:33N 33°46' W 118°16'0 0.0
2016-Aug-20 11:31N 33°46' W 118°16'0 0.0
2016-Aug-20 09:27N 33°46' W 118°16'0 0.0
2016-Aug-20 08:33N 33°46' W 118°16'0 0.0
2016-Aug-20 04:12N 33°46' W 118°16'0 0.0
2016-Aug-20 03:22N 33°46' W 118°16'0 0.0
2016-Aug-20 02:33N 33°46' W 118°16'0 0.0
2016-Aug-20 01:30N 33°46' W 118°16'0 0.0
2016-Aug-20 00:29N 33°46' W 118°16'0 0.0
2016-Aug-19 23:33N 33°46' W 118°16'0 0.0
2016-Aug-19 22:33N 33°46' W 118°16'0 0.0
2016-Aug-19 21:34N 33°46' W 118°16'0 0.0
2016-Aug-19 20:33N 33°46' W 118°16'0 0.0
2016-Aug-19 19:33N 33°46' W 118°16'0 0.0
2016-Aug-19 18:33N 33°46' W 118°16'0 0.0
2016-Aug-19 12:27N 33°46' W 118°16'0 0.0
2016-Aug-19 11:08N 33°46' W 118°16'0 0.0
2016-Aug-19 10:33N 33°46' W 118°16'0 0.0
2016-Aug-19 09:29N 33°46' W 118°16'0 0.0
2016-Aug-19 08:33N 33°46' W 118°16'0 0.0
2016-Aug-19 07:33N 33°46' W 118°16'0 0.0
2016-Aug-19 06:33N 33°46' W 118°16'0 0.0
2016-Aug-19 05:29N 33°46' W 118°16'0 0.0
2016-Aug-19 04:33N 33°46' W 118°16'0 0.0
2016-Aug-19 03:33N 33°46' W 118°16'0 0.0
2016-Aug-19 02:34N 33°46' W 118°16'0 0.0
2016-Aug-19 01:32N 33°46' W 118°16'0 0.0
2016-Aug-19 00:29N 33°46' W 118°16'0 0.0
2016-Aug-18 23:22N 33°46' W 118°16'0 0.0
2016-Aug-18 22:33N 33°46' W 118°16'5 5.2
2016-Aug-18 21:33N 33°42' W 118°12'5 5.2
2016-Aug-18 20:33N 33°46' W 118°16'0 0.0
2016-Aug-18 19:33N 33°46' W 118°16'0 0.0
2016-Aug-18 16:10N 33°46' W 118°16'0 0.0
2016-Aug-18 14:33N 33°46' W 118°16'0 0.0
2016-Aug-18 13:33N 33°46' W 118°16'0 0.0
2016-Aug-18 12:33N 33°46' W 118°16'0 0.0
2016-Aug-18 11:32N 33°46' W 118°16'0 0.0
2016-Aug-18 10:33N 33°46' W 118°16'0 0.0
2016-Aug-18 09:33N 33°46' W 118°16'0 0.0
2016-Aug-18 08:30N 33°46' W 118°16'0 0.0
2016-Aug-18 06:29N 33°46' W 118°16'0 0.0
2016-Aug-18 04:29N 33°46' W 118°16'0 0.0
2016-Aug-18 00:05N 33°46' W 118°16'0 0.0
2016-Aug-17 23:20N 33°46' W 118°16'0 0.0
2016-Aug-17 22:33N 33°46' W 118°16'6 6.4
2016-Aug-17 21:33N 33°43' W 118°23'6 4.3
2016-Aug-17 20:05N 33°46' W 118°16'0 0.0
2016-Aug-17 19:34N 33°46' W 118°16'0 0.0
2016-Aug-17 18:33N 33°46' W 118°16'0 0.0
2016-Aug-17 17:32N 33°46' W 118°16'0 0.0
2016-Aug-17 16:33N 33°46' W 118°16'0 0.0
2016-Aug-17 15:33N 33°46' W 118°16'0 0.0
2016-Aug-17 14:33N 33°46' W 118°16'0 0.0
2016-Aug-17 13:33N 33°46' W 118°16'0 0.0
2016-Aug-17 12:33N 33°46' W 118°16'0 0.0
2016-Aug-17 11:33N 33°46' W 118°16'0 0.0
2016-Aug-17 10:25N 33°46' W 118°16'0 0.0
2016-Aug-17 09:34N 33°46' W 118°16'0 0.0
2016-Aug-17 08:33N 33°46' W 118°16'0 0.0
2016-Aug-17 07:24N 33°46' W 118°16'0 0.0
2016-Aug-17 06:31N 33°46' W 118°16'0 0.0
2016-Aug-17 05:34N 33°46' W 118°16'0 0.0
2016-Aug-17 04:20N 33°46' W 118°16'0 0.0
2016-Aug-17 03:33N 33°46' W 118°16'0 0.0
2016-Aug-17 02:33N 33°46' W 118°16'0 0.0
2016-Aug-17 01:30N 33°46' W 118°16'0 0.0
2016-Aug-17 00:33N 33°46' W 118°16'0 0.0
2016-Aug-16 23:33N 33°46' W 118°16'0 0.0
2016-Aug-16 22:33N 33°46' W 118°16'0 0.0
2016-Aug-16 21:33N 33°46' W 118°16'0 0.0
2016-Aug-16 20:33N 33°46' W 118°16'0 0.0
2016-Aug-16 19:33N 33°46' W 118°16'0 0.0
2016-Aug-16 18:33N 33°46' W 118°16'0 0.0
2016-Aug-16 17:34N 33°46' W 118°16'0 0.0
2016-Aug-16 16:33N 33°46' W 118°16'0 0.0
2016-Aug-16 15:33N 33°46' W 118°16'0 0.0
2016-Aug-16 14:34N 33°46' W 118°16'0 0.0
2016-Aug-16 13:34N 33°46' W 118°16'0 0.0
2016-Aug-16 11:33N 33°46' W 118°16'0 0.0
2016-Aug-16 10:34N 33°46' W 118°16'0 0.0
2016-Aug-16 09:30N 33°46' W 118°16'0 0.0
2016-Aug-16 08:33N 33°46' W 118°16'0 0.0
2016-Aug-16 07:33N 33°46' W 118°16'0 0.0
2016-Aug-16 04:33N 33°46' W 118°16'0 0.0
2016-Aug-16 03:24N 33°46' W 118°16'0 0.0
2016-Aug-16 02:31N 33°46' W 118°16'0 0.0
2016-Aug-16 01:33N 33°46' W 118°16'0 0.0
2016-Aug-16 00:33N 33°46' W 118°16'0 0.0
2016-Aug-15 23:33N 33°46' W 118°16'0 0.0
2016-Aug-15 22:30N 33°46' W 118°16'0 0.0
2016-Aug-15 21:33N 33°46' W 118°16'0 0.0
2016-Aug-15 20:34N 33°46' W 118°16'0 0.0
2016-Aug-15 19:33N 33°46' W 118°16'0 0.0
2016-Aug-15 18:26N 33°46' W 118°16'0 0.0
2016-Aug-15 17:32N 33°46' W 118°16'0 0.0
2016-Aug-15 16:33N 33°46' W 118°16'0 0.0
2016-Aug-15 15:32N 33°46' W 118°16'0 0.0
2016-Aug-15 14:33N 33°46' W 118°16'0 0.0
2016-Aug-15 13:33N 33°46' W 118°16'0 0.0
2016-Aug-15 12:33N 33°46' W 118°16'0 0.0
2016-Aug-15 11:30N 33°46' W 118°16'0 0.0
2016-Aug-15 10:32N 33°46' W 118°16'0 0.0
2016-Aug-15 09:33N 33°46' W 118°16'0 0.0
2016-Aug-15 08:33N 33°46' W 118°16'0 0.0
2016-Aug-15 07:33N 33°46' W 118°16'0 0.0
2016-Aug-15 06:34N 33°46' W 118°16'  
Track history (hours):
 
Tides and Currents Weather Stations Pressure Air Temp Water Temp Dewpoint Dewpoint Depression Visibility Wind Speed Wind Dir Waves Ship Positions

Stephen M. White

Owner: LOS ANGELES, CITY OF, SAN PEDRO, CA. More information available from US FCC via Universal Licensing System and Coast Guard Vessel Documentation Center.

Last reported at 2016-Aug-25 02:33 UTC. Time now 2016-Aug-25 02:46 UTC.
Position N 33°43' W 118°16'.

Length 13 m.

Type: Other ship. MMSI: 367049470.

Date/timePositionNaut miles runAvg speedWind from/ knotsBaromVisibWave heightAir tempDewpointWater temp
2016-Aug-25 02:33N 33°43' W 118°16'0 0.0
2016-Aug-25 01:33N 33°43' W 118°16'0 0.0
2016-Aug-25 00:33N 33°43' W 118°16'2 1.5
2016-Aug-24 23:33N 33°42' W 118°15'2 1.5
2016-Aug-24 22:33N 33°43' W 118°16'3 3.4
2016-Aug-24 21:33N 33°41' W 118°14'3 2.5
2016-Aug-24 20:14N 33°43' W 118°16'0 0.0
2016-Aug-24 19:22N 33°43' W 118°16'0 0.0
2016-Aug-24 15:32N 33°43' W 118°16'0 0.0
2016-Aug-24 14:23N 33°43' W 118°16'1 0.7
2016-Aug-24 13:33N 33°43' W 118°16'1 0.9
2016-Aug-24 12:33N 33°42' W 118°15'2 1.5
2016-Aug-24 11:33N 33°43' W 118°16'1 1.3
2016-Aug-24 10:33N 33°43' W 118°15'1 1.3
2016-Aug-24 09:33N 33°43' W 118°16'0 0.0
2016-Aug-24 08:31N 33°43' W 118°16'0 0.0
2016-Aug-24 07:34N 33°43' W 118°16'0 0.0
2016-Aug-24 06:33N 33°43' W 118°16'0 0.0
2016-Aug-24 04:33N 33°43' W 118°16'0 0.0
2016-Aug-24 03:32N 33°43' W 118°16'0 0.0
2016-Aug-24 02:33N 33°43' W 118°16'0 0.0
2016-Aug-24 01:34N 33°43' W 118°16'0 0.0
2016-Aug-24 00:33N 33°43' W 118°16'0 0.0
2016-Aug-23 23:32N 33°43' W 118°16'0 0.0
2016-Aug-23 22:33N 33°43' W 118°16'0 0.0
2016-Aug-23 21:33N 33°43' W 118°16'0 0.0
2016-Aug-23 20:33N 33°43' W 118°16'3 2.5
2016-Aug-23 19:31N 33°41' W 118°15'3 2.6
2016-Aug-23 18:32N 33°43' W 118°16'0 0.0
2016-Aug-23 17:33N 33°43' W 118°16'0 0.0
2016-Aug-23 16:33N 33°43' W 118°16'0 0.0
2016-Aug-23 15:33N 33°43' W 118°16'0 0.0
2016-Aug-23 14:30N 33°43' W 118°16'0 0.0
2016-Aug-23 12:30N 33°43' W 118°16'0 0.0
2016-Aug-23 11:24N 33°43' W 118°16'0 0.0
2016-Aug-23 10:33N 33°43' W 118°16'0 0.0
2016-Aug-23 09:33N 33°43' W 118°16'0 0.0
2016-Aug-23 08:33N 33°43' W 118°16'0 0.0
2016-Aug-23 07:33N 33°43' W 118°16'0 0.0
2016-Aug-23 05:33N 33°43' W 118°16'0 0.0
2016-Aug-23 04:33N 33°43' W 118°16'0 0.0
2016-Aug-23 03:33N 33°43' W 118°16'1 0.9
2016-Aug-23 02:34N 33°43' W 118°15'1 0.9
2016-Aug-23 01:33N 33°43' W 118°16'3 2.9
2016-Aug-23 00:33N 33°41' W 118°14'3 2.9
2016-Aug-22 23:34N 33°43' W 118°16'2 2.1
2016-Aug-22 22:33N 33°42' W 118°14'2 2.1
2016-Aug-22 21:32N 33°43' W 118°16'0 0.0
2016-Aug-22 20:33N 33°43' W 118°16'0 0.0
2016-Aug-22 19:27N 33°43' W 118°16'0 0.0
2016-Aug-22 17:15N 33°43' W 118°16'0 0.0
2016-Aug-22 16:33N 33°43' W 118°16'0 0.0
2016-Aug-22 15:33N 33°43' W 118°16'0 0.0
2016-Aug-22 14:33N 33°43' W 118°16'0 0.5
2016-Aug-22 13:33N 33°44' W 118°16'0 0.1
2016-Aug-22 12:33N 33°44' W 118°17'0 0.0
2016-Aug-22 11:22N 33°44' W 118°17'0 0.0
2016-Aug-22 10:32N 33°44' W 118°17'0 0.0
2016-Aug-22 09:33N 33°44' W 118°17'0 0.0
2016-Aug-22 08:33N 33°44' W 118°17'0 0.0
2016-Aug-22 07:33N 33°44' W 118°17'0 0.0
2016-Aug-22 06:33N 33°44' W 118°17'0 0.0
2016-Aug-22 05:33N 33°44' W 118°17'0 0.0
2016-Aug-22 04:32N 33°44' W 118°17'0 0.0
2016-Aug-22 03:33N 33°44' W 118°17'0 0.0
2016-Aug-22 02:32N 33°44' W 118°17'0 0.0
2016-Aug-22 01:33N 33°44' W 118°17'0 0.0
2016-Aug-22 00:33N 33°44' W 118°17'0 0.3
2016-Aug-21 23:33N 33°44' W 118°16'1 1.1
2016-Aug-21 22:34N 33°43' W 118°15'1 0.9
2016-Aug-21 21:33N 33°43' W 118°16'0 0.0
2016-Aug-21 20:33N 33°43' W 118°16'0 0.0
2016-Aug-21 19:33N 33°43' W 118°16'2 2.4
2016-Aug-21 18:32N 33°46' W 118°16'0 0.1
2016-Aug-21 17:33N 33°46' W 118°16'0 0.0
2016-Aug-21 16:33N 33°46' W 118°16'0 0.0
2016-Aug-21 15:33N 33°46' W 118°16'0 0.0
2016-Aug-21 14:31N 33°46' W 118°16'0 0.0
2016-Aug-21 12:31N 33°46' W 118°16'0 0.0
2016-Aug-21 11:31N 33°46' W 118°16'0 0.0
2016-Aug-21 10:33N 33°46' W 118°16'0 0.0
2016-Aug-21 09:34N 33°46' W 118°16'0 0.0
2016-Aug-21 08:32N 33°46' W 118°16'0 0.0
2016-Aug-21 07:33N 33°46' W 118°16'0 0.0
2016-Aug-21 06:32N 33°46' W 118°16'0 0.0
2016-Aug-21 05:33N 33°46' W 118°16'0 0.0
2016-Aug-21 04:33N 33°46' W 118°16'0 0.0
2016-Aug-21 03:33N 33°46' W 118°16'0 0.0
2016-Aug-21 02:23N 33°46' W 118°16'0 0.0
2016-Aug-21 00:33N 33°46' W 118°16'0 0.0
2016-Aug-20 23:32N 33°46' W 118°16'0 0.0
2016-Aug-20 22:22N 33°46' W 118°16'0 0.0
2016-Aug-20 20:26N 33°46' W 118°16'0 0.0
2016-Aug-20 19:33N 33°46' W 118°16'0 0.0
2016-Aug-20 17:16N 33°46' W 118°16'0 0.0
2016-Aug-20 16:17N 33°46' W 118°16'0 0.0
2016-Aug-20 15:33N 33°46' W 118°16'0 0.0
2016-Aug-20 14:33N 33°46' W 118°16'0 0.0
2016-Aug-20 13:33N 33°46' W 118°16'0 0.0
2016-Aug-20 11:31N 33°46' W 118°16'0 0.0
2016-Aug-20 09:27N 33°46' W 118°16'0 0.0
2016-Aug-20 08:33N 33°46' W 118°16'0 0.0
2016-Aug-20 04:12N 33°46' W 118°16'0 0.0
2016-Aug-20 03:22N 33°46' W 118°16'0 0.0
2016-Aug-20 02:33N 33°46' W 118°16'0 0.0
2016-Aug-20 01:30N 33°46' W 118°16'0 0.0
2016-Aug-20 00:29N 33°46' W 118°16'0 0.0
2016-Aug-19 23:33N 33°46' W 118°16'0 0.0
2016-Aug-19 22:33N 33°46' W 118°16'0 0.0
2016-Aug-19 21:34N 33°46' W 118°16'0 0.0
2016-Aug-19 20:33N 33°46' W 118°16'0 0.0
2016-Aug-19 19:33N 33°46' W 118°16'0 0.0
2016-Aug-19 18:33N 33°46' W 118°16'0 0.0
2016-Aug-19 12:27N 33°46' W 118°16'0 0.0
2016-Aug-19 11:08N 33°46' W 118°16'0 0.0
2016-Aug-19 10:33N 33°46' W 118°16'0 0.0
2016-Aug-19 09:29N 33°46' W 118°16'0 0.0
2016-Aug-19 08:33N 33°46' W 118°16'0 0.0
2016-Aug-19 07:33N 33°46' W 118°16'0 0.0
2016-Aug-19 06:33N 33°46' W 118°16'0 0.0
2016-Aug-19 05:29N 33°46' W 118°16'0 0.0
2016-Aug-19 04:33N 33°46' W 118°16'0 0.0
2016-Aug-19 03:33N 33°46' W 118°16'0 0.0
2016-Aug-19 02:34N 33°46' W 118°16'0 0.0
2016-Aug-19 01:32N 33°46' W 118°16'0 0.0
2016-Aug-19 00:29N 33°46' W 118°16'0 0.0
2016-Aug-18 23:22N 33°46' W 118°16'0 0.0
2016-Aug-18 22:33N 33°46' W 118°16'5 5.2
2016-Aug-18 21:33N 33°42' W 118°12'5 5.2
2016-Aug-18 20:33N 33°46' W 118°16'0 0.0
2016-Aug-18 19:33N 33°46' W 118°16'0 0.0
2016-Aug-18 16:10N 33°46' W 118°16'0 0.0
2016-Aug-18 14:33N 33°46' W 118°16'0 0.0
2016-Aug-18 13:33N 33°46' W 118°16'0 0.0
2016-Aug-18 12:33N 33°46' W 118°16'0 0.0
2016-Aug-18 11:32N 33°46' W 118°16'0 0.0
2016-Aug-18 10:33N 33°46' W 118°16'0 0.0
2016-Aug-18 09:33N 33°46' W 118°16'0 0.0
2016-Aug-18 08:30N 33°46' W 118°16'0 0.0
2016-Aug-18 06:29N 33°46' W 118°16'0 0.0
2016-Aug-18 04:29N 33°46' W 118°16'0 0.0
2016-Aug-18 00:05N 33°46' W 118°16'0 0.0
2016-Aug-17 23:20N 33°46' W 118°16'0 0.0
2016-Aug-17 22:33N 33°46' W 118°16'6 6.4
2016-Aug-17 21:33N 33°43' W 118°23'6 4.3
2016-Aug-17 20:05N 33°46' W 118°16'0 0.0
2016-Aug-17 19:34N 33°46' W 118°16'0 0.0
2016-Aug-17 18:33N 33°46' W 118°16'0 0.0
2016-Aug-17 17:32N 33°46' W 118°16'0 0.0
2016-Aug-17 16:33N 33°46' W 118°16'0 0.0
2016-Aug-17 15:33N 33°46' W 118°16'0 0.0
2016-Aug-17 14:33N 33°46' W 118°16'0 0.0
2016-Aug-17 13:33N 33°46' W 118°16'0 0.0
2016-Aug-17 12:33N 33°46' W 118°16'0 0.0
2016-Aug-17 11:33N 33°46' W 118°16'0 0.0
2016-Aug-17 10:25N 33°46' W 118°16'0 0.0
2016-Aug-17 09:34N 33°46' W 118°16'0 0.0
2016-Aug-17 08:33N 33°46' W 118°16'0 0.0
2016-Aug-17 07:24N 33°46' W 118°16'0 0.0
2016-Aug-17 06:31N 33°46' W 118°16'0 0.0
2016-Aug-17 05:34N 33°46' W 118°16'0 0.0
2016-Aug-17 04:20N 33°46' W 118°16'0 0.0
2016-Aug-17 03:33N 33°46' W 118°16'0 0.0
2016-Aug-17 02:33N 33°46' W 118°16'0 0.0
2016-Aug-17 01:30N 33°46' W 118°16'0 0.0
2016-Aug-17 00:33N 33°46' W 118°16'0 0.0
2016-Aug-16 23:33N 33°46' W 118°16'0 0.0
2016-Aug-16 22:33N 33°46' W 118°16'0 0.0
2016-Aug-16 21:33N 33°46' W 118°16'0 0.0
2016-Aug-16 20:33N 33°46' W 118°16'0 0.0
2016-Aug-16 19:33N 33°46' W 118°16'0 0.0
2016-Aug-16 18:33N 33°46' W 118°16'0 0.0
2016-Aug-16 17:34N 33°46' W 118°16'0 0.0
2016-Aug-16 16:33N 33°46' W 118°16'0 0.0
2016-Aug-16 15:33N 33°46' W 118°16'0 0.0
2016-Aug-16 14:34N 33°46' W 118°16'0 0.0
2016-Aug-16 13:34N 33°46' W 118°16'0 0.0
2016-Aug-16 11:33N 33°46' W 118°16'0 0.0
2016-Aug-16 10:34N 33°46' W 118°16'0 0.0
2016-Aug-16 09:30N 33°46' W 118°16'0 0.0
2016-Aug-16 08:33N 33°46' W 118°16'0 0.0
2016-Aug-16 07:33N 33°46' W 118°16'0 0.0
2016-Aug-16 04:33N 33°46' W 118°16'0 0.0
2016-Aug-16 03:24N 33°46' W 118°16'0 0.0
2016-Aug-16 02:31N 33°46' W 118°16'0 0.0
2016-Aug-16 01:33N 33°46' W 118°16'0 0.0
2016-Aug-16 00:33N 33°46' W 118°16'0 0.0
2016-Aug-15 23:33N 33°46' W 118°16'0 0.0
2016-Aug-15 22:30N 33°46' W 118°16'0 0.0
2016-Aug-15 21:33N 33°46' W 118°16'0 0.0
2016-Aug-15 20:34N 33°46' W 118°16'0 0.0
2016-Aug-15 19:33N 33°46' W 118°16'0 0.0
2016-Aug-15 18:26N 33°46' W 118°16'0 0.0
2016-Aug-15 17:32N 33°46' W 118°16'0 0.0
2016-Aug-15 16:33N 33°46' W 118°16'0 0.0
2016-Aug-15 15:32N 33°46' W 118°16'0 0.0
2016-Aug-15 14:33N 33°46' W 118°16'0 0.0
2016-Aug-15 13:33N 33°46' W 118°16'0 0.0
2016-Aug-15 12:33N 33°46' W 118°16'0 0.0
2016-Aug-15 11:30N 33°46' W 118°16'0 0.0
2016-Aug-15 10:32N 33°46' W 118°16'0 0.0
2016-Aug-15 09:33N 33°46' W 118°16'0 0.0
2016-Aug-15 08:33N 33°46' W 118°16'0 0.0
2016-Aug-15 07:33N 33°46' W 118°16'0 0.0
2016-Aug-15 06:34N 33°46' W 118°16'  

Dump ship's entire track history